createdAt,value
2024-02-08T00:02:24.876Z,5.47
2024-02-08T00:04:52.223Z,4.60
2024-02-08T00:07:19.246Z,5.57
2024-02-08T00:09:46.085Z,4.90
2024-02-08T00:12:13.194Z,4.87
2024-02-08T00:14:40.531Z,4.63
2024-02-08T00:17:07.671Z,5.00
2024-02-08T00:19:34.838Z,5.67
2024-02-08T00:22:01.851Z,5.13
2024-02-08T00:24:31.981Z,5.50
2024-02-08T00:26:59.670Z,4.63
2024-02-08T00:29:26.930Z,4.60
2024-02-08T00:31:54.164Z,4.97
2024-02-08T00:34:21.131Z,4.60
2024-02-08T00:36:50.343Z,5.03
2024-02-08T00:39:17.231Z,5.03
2024-02-08T00:41:51.272Z,6.00
2024-02-08T00:44:21.193Z,4.90
2024-02-08T00:46:52.036Z,4.90
2024-02-08T00:49:18.890Z,5.00
2024-02-08T00:51:45.857Z,4.90
2024-02-08T00:54:12.779Z,5.40
2024-02-08T00:56:43.007Z,5.67
2024-02-08T00:59:12.937Z,5.80
2024-02-08T01:01:42.191Z,5.47
2024-02-08T01:04:11.873Z,5.60
2024-02-08T01:06:41.870Z,5.83
2024-02-08T01:09:09.052Z,5.63
2024-02-08T01:11:36.085Z,5.23
2024-02-08T01:14:05.866Z,5.30
2024-02-08T01:16:34.399Z,5.23
2024-02-08T01:19:01.442Z,5.40
2024-02-08T01:21:28.577Z,4.80
2024-02-08T01:23:55.388Z,5.60
2024-02-08T01:26:22.203Z,5.67
2024-02-08T01:28:49.397Z,5.07
2024-02-08T01:31:16.196Z,5.30
2024-02-08T01:33:45.608Z,4.97
2024-02-08T01:36:12.566Z,4.90
2024-02-08T01:38:43.385Z,5.23
2024-02-08T01:41:11.184Z,4.97
2024-02-08T01:43:38.142Z,5.40
2024-02-08T01:46:05.063Z,5.50
2024-02-08T01:48:32.235Z,4.97
2024-02-08T01:51:02.695Z,5.53
2024-02-08T01:53:30.599Z,5.33
2024-02-08T01:56:02.014Z,4.90
2024-02-08T01:58:32.325Z,5.83
2024-02-08T02:01:11.232Z,5.57
2024-02-08T02:03:39.716Z,5.67
2024-02-08T02:06:09.839Z,5.87
2024-02-08T02:08:37.135Z,5.80
2024-02-08T02:11:16.342Z,5.67
2024-02-08T02:13:43.866Z,5.93
2024-02-08T02:16:10.927Z,5.83
2024-02-08T02:18:37.986Z,5.47
2024-02-08T02:21:05.006Z,5.67
2024-02-08T02:23:33.159Z,5.13
2024-02-08T02:26:00.598Z,5.60
2024-02-08T02:28:28.562Z,6.10
2024-02-08T02:30:56.185Z,4.73
2024-02-08T02:33:26.511Z,5.60
2024-02-08T02:35:54.168Z,5.70
2024-02-08T02:38:25.411Z,5.33
2024-02-08T02:40:52.509Z,5.90
2024-02-08T02:43:19.581Z,5.17
2024-02-08T02:45:46.501Z,5.47
2024-02-08T02:48:13.613Z,5.87
2024-02-08T02:50:43.815Z,6.53
2024-02-08T02:53:11.515Z,5.60
2024-02-08T02:55:39.547Z,5.47
2024-02-08T02:58:06.717Z,5.07
2024-02-08T03:00:37.902Z,6.23
2024-02-08T03:03:09.392Z,5.40
2024-02-08T03:05:38.144Z,6.43
2024-02-08T03:08:06.619Z,5.40
2024-02-08T03:10:36.211Z,5.80
2024-02-08T03:13:03.100Z,5.90
2024-02-08T03:15:30.101Z,5.77
2024-02-08T03:17:57.330Z,6.00
2024-02-08T03:20:31.133Z,4.93
2024-02-08T03:22:58.803Z,5.27
2024-02-08T03:25:26.523Z,6.70
2024-02-08T03:27:54.157Z,5.93
2024-02-08T03:30:32.043Z,6.10
2024-02-08T03:33:00.041Z,6.83
2024-02-08T03:35:30.958Z,7.17
2024-02-08T03:38:01.968Z,6.40
2024-02-08T03:40:33.749Z,7.10
2024-02-08T03:43:04.261Z,7.23
2024-02-08T03:45:32.172Z,6.20
2024-02-08T03:48:00.849Z,7.40
2024-02-08T03:50:35.232Z,5.70
2024-02-08T03:53:13.744Z,5.50
2024-02-08T03:55:45.306Z,6.17
2024-02-08T03:58:15.315Z,6.93
2024-02-08T04:00:54.441Z,5.90
2024-02-08T04:03:40.019Z,5.77
2024-02-08T04:06:26.981Z,5.50
2024-02-08T04:09:18.957Z,6.00
2024-02-08T04:12:04.419Z,5.30
2024-02-08T04:14:50.277Z,5.70
2024-02-08T04:17:35.529Z,5.67
2024-02-08T04:20:20.819Z,6.00
2024-02-08T04:23:06.590Z,5.37
2024-02-08T04:25:52.201Z,6.47
2024-02-08T04:28:37.749Z,6.27
2024-02-08T04:31:29.073Z,6.07
2024-02-08T04:34:15.742Z,5.57
2024-02-08T04:37:01.433Z,5.80
2024-02-08T04:39:46.881Z,6.10
2024-02-08T04:42:32.313Z,5.40
2024-02-08T04:45:17.907Z,5.63
2024-02-08T04:48:03.448Z,6.03
2024-02-08T04:50:49.026Z,5.27
2024-02-08T04:53:34.604Z,5.27
2024-02-08T04:56:08.401Z,5.83
2024-02-08T05:01:13.851Z,5.50
2024-02-08T05:03:43.415Z,5.53
2024-02-08T05:06:22.663Z,6.07
2024-02-08T05:08:52.166Z,5.53
2024-02-08T05:11:19.207Z,5.30
2024-02-08T05:13:52.817Z,5.73
2024-02-08T05:16:21.050Z,5.67
2024-02-08T05:18:49.331Z,5.73
2024-02-08T05:21:17.550Z,5.60
2024-02-08T05:23:45.561Z,5.87
2024-02-08T05:26:19.556Z,5.93
2024-02-08T05:28:49.974Z,6.43
2024-02-08T05:31:19.770Z,5.90
2024-02-08T05:33:46.801Z,6.37
2024-02-08T05:36:14.238Z,6.27
2024-02-08T05:38:44.211Z,7.00
2024-02-08T05:41:13.116Z,6.97
2024-02-08T05:43:45.974Z,6.50
2024-02-08T05:46:26.913Z,6.03
2024-02-08T05:48:55.341Z,6.20
2024-02-08T05:51:23.699Z,6.13
2024-02-08T05:53:53.080Z,6.37
2024-02-08T05:56:23.132Z,6.30
2024-02-08T05:58:53.077Z,5.63
2024-02-08T06:01:22.308Z,6.03
2024-02-08T06:03:49.686Z,6.47
2024-02-08T06:06:27.592Z,6.37
2024-02-08T06:08:57.576Z,6.00
2024-02-08T06:11:24.581Z,6.00
2024-02-08T06:14:00.983Z,6.07
2024-02-08T06:16:28.475Z,6.00
2024-02-08T06:19:03.772Z,6.97
2024-02-08T06:21:41.640Z,6.67
2024-02-08T06:24:24.783Z,6.20
2024-02-08T06:26:56.898Z,6.70
2024-02-08T06:29:28.158Z,7.27
2024-02-08T06:32:04.157Z,6.67
2024-02-08T06:34:44.115Z,6.53
2024-02-08T06:37:27.393Z,7.37
2024-02-08T06:39:59.106Z,7.63
2024-02-08T06:42:45.508Z,7.87
2024-02-08T06:45:30.961Z,9.07
2024-02-08T06:48:01.303Z,8.50
2024-02-08T06:50:47.642Z,7.47
2024-02-08T06:53:35.248Z,9.07
2024-02-08T06:56:22.983Z,6.60
2024-02-08T06:59:08.375Z,9.57
2024-02-08T07:01:55.070Z,8.30
2024-02-08T07:04:40.486Z,8.50
2024-02-08T07:07:26.088Z,7.47
2024-02-08T07:10:11.576Z,7.60
2024-02-08T07:13:13.870Z,7.50
2024-02-08T07:15:59.662Z,8.10
2024-02-08T07:18:49.713Z,7.43
2024-02-08T07:21:40.603Z,8.10
2024-02-08T07:24:26.167Z,8.30
2024-02-08T07:27:11.660Z,7.27
2024-02-08T07:30:00.949Z,9.53
2024-02-08T07:32:46.858Z,11.97
2024-02-08T07:35:32.284Z,12.17
2024-02-08T07:38:00.476Z,6.23
2024-02-08T07:40:28.265Z,5.77
2024-02-08T07:43:18.133Z,5.00
2024-02-08T07:45:47.108Z,5.23
2024-02-08T07:48:15.249Z,5.23
2024-02-08T07:50:49.106Z,5.60
2024-02-08T07:53:36.404Z,5.33
2024-02-08T07:56:22.613Z,4.37
2024-02-08T07:58:53.683Z,5.47
2024-02-08T08:01:20.977Z,7.73
2024-02-08T08:03:50.968Z,5.63
2024-02-08T08:06:18.218Z,5.50
2024-02-08T08:08:56.141Z,5.70
2024-02-08T08:11:26.913Z,5.47
2024-02-08T08:13:56.780Z,4.87
2024-02-08T08:16:31.542Z,4.63
2024-02-08T08:19:10.444Z,4.53
2024-02-08T08:22:01.156Z,4.50
2024-02-08T08:24:28.692Z,4.10
2024-02-08T08:27:27.276Z,4.07
2024-02-08T08:29:59.879Z,4.30
2024-02-08T08:32:34.066Z,5.03
2024-02-08T08:35:24.967Z,4.67
2024-02-08T08:38:10.875Z,4.53
2024-02-08T08:40:41.597Z,4.70
2024-02-08T08:43:20.808Z,4.57
2024-02-08T08:45:54.820Z,3.97
2024-02-08T08:48:22.880Z,5.03
2024-02-08T08:50:59.305Z,4.77
2024-02-08T08:53:37.346Z,5.10
2024-02-08T08:56:12.164Z,5.27
2024-02-08T08:58:40.934Z,4.60
2024-02-08T09:01:16.564Z,5.57
2024-02-08T09:03:45.424Z,5.23
2024-02-08T09:06:18.150Z,7.37
2024-02-08T09:08:56.031Z,5.73
2024-02-08T09:11:26.196Z,5.23
2024-02-08T09:13:54.306Z,5.43
2024-02-08T09:16:25.743Z,5.73
2024-02-08T09:19:01.277Z,4.60
2024-02-08T09:21:40.219Z,4.43
2024-02-08T09:24:08.913Z,5.30
2024-02-08T09:26:50.358Z,5.13
2024-02-08T09:29:28.439Z,6.07
2024-02-08T09:31:59.862Z,5.73
2024-02-08T09:34:42.431Z,5.60
2024-02-08T09:37:10.373Z,5.13
2024-02-08T09:39:53.441Z,4.83
2024-02-08T09:42:27.987Z,5.30
2024-02-08T09:45:27.820Z,4.43
2024-02-08T09:48:01.242Z,5.57
2024-02-08T09:50:37.845Z,6.67
2024-02-08T09:53:19.015Z,5.83
2024-02-08T09:55:56.752Z,5.73
2024-02-08T09:58:43.246Z,6.60
2024-02-08T10:01:24.298Z,5.70
2024-02-08T10:04:05.961Z,5.60
2024-02-08T10:06:58.771Z,5.67
2024-02-08T10:09:47.934Z,5.70
2024-02-08T10:12:22.077Z,5.97
2024-02-08T10:14:56.236Z,5.73
2024-02-08T10:17:26.521Z,6.00
2024-02-08T10:20:14.237Z,6.10
2024-02-08T10:23:01.152Z,6.30
2024-02-08T10:25:48.024Z,6.17
2024-02-08T10:28:24.098Z,5.83
2024-02-08T10:30:58.385Z,6.50
2024-02-08T10:33:38.716Z,6.87
2024-02-08T10:36:19.166Z,6.10
2024-02-08T10:38:58.679Z,6.10
2024-02-08T10:41:50.930Z,6.13
2024-02-08T10:44:25.439Z,5.90
2024-02-08T10:47:06.277Z,6.50
2024-02-08T10:49:46.798Z,6.23
2024-02-08T10:52:17.818Z,6.50
2024-02-08T10:54:53.277Z,6.40
2024-02-08T10:57:39.889Z,6.30
2024-02-08T11:00:32.166Z,6.27
2024-02-08T11:03:09.150Z,6.83
2024-02-08T11:05:49.899Z,6.33
2024-02-08T11:08:25.672Z,7.40
2024-02-08T11:11:00.110Z,6.87
2024-02-08T11:13:39.056Z,7.30
2024-02-08T11:16:34.773Z,7.20
2024-02-08T11:19:05.926Z,7.03
2024-02-08T11:21:45.827Z,8.20
2024-02-08T11:24:28.941Z,6.97
2024-02-08T11:27:03.381Z,6.63
2024-02-08T11:29:46.459Z,6.50
2024-02-08T11:32:17.688Z,7.23
2024-02-08T11:34:46.897Z,6.90
2024-02-08T11:37:19.536Z,7.37
2024-02-08T11:39:48.564Z,7.90
2024-02-08T11:42:19.564Z,7.43
2024-02-08T11:44:47.237Z,8.07
2024-02-08T11:47:24.354Z,8.30
2024-02-08T11:50:05.189Z,8.00
2024-02-08T11:52:35.055Z,7.87
2024-02-08T11:55:15.435Z,8.17
2024-02-08T11:57:43.140Z,8.33
2024-02-08T12:00:17.481Z,8.10
2024-02-08T12:02:49.392Z,8.87
2024-02-08T12:05:18.630Z,8.00
2024-02-08T12:07:47.603Z,8.60
2024-02-08T12:10:16.561Z,8.17
2024-02-08T12:12:47.206Z,8.27
2024-02-08T12:15:16.865Z,9.03
2024-02-08T12:17:50.048Z,9.87
2024-02-08T12:20:17.981Z,8.37
2024-02-08T12:22:53.516Z,7.67
2024-02-08T12:25:20.653Z,8.30
2024-02-08T12:27:52.517Z,8.07
2024-02-08T12:30:29.604Z,8.43
2024-02-08T12:32:58.981Z,8.70
2024-02-08T12:35:29.390Z,8.63
2024-02-08T12:37:59.961Z,8.53
2024-02-08T12:40:34.017Z,8.20
2024-02-08T12:43:01.692Z,8.07
2024-02-08T12:45:33.237Z,7.73
2024-02-08T12:48:05.726Z,8.27
2024-02-08T12:50:36.237Z,6.83
2024-02-08T12:53:06.988Z,7.23
2024-02-08T12:55:34.039Z,7.17
2024-02-08T12:58:06.311Z,8.10
2024-02-08T13:00:36.979Z,6.67
2024-02-08T13:03:08.684Z,6.40
2024-02-08T13:05:46.470Z,6.87
2024-02-08T13:08:22.962Z,6.53
2024-02-08T13:10:57.125Z,6.13
2024-02-08T13:13:25.104Z,5.37
2024-02-08T13:16:02.642Z,4.93
2024-02-08T13:18:32.877Z,5.47
2024-02-08T13:21:01.437Z,5.27
2024-02-08T13:23:28.768Z,5.97
2024-02-08T13:25:58.035Z,5.50
2024-02-08T13:28:26.414Z,5.27
2024-02-08T13:30:58.440Z,4.53
2024-02-08T13:33:29.635Z,5.77
2024-02-08T13:35:56.731Z,4.37
2024-02-08T13:38:24.272Z,5.93
2024-02-08T13:41:00.769Z,5.07
2024-02-08T13:43:32.091Z,4.27
2024-02-08T13:46:02.015Z,4.13
2024-02-08T13:48:30.875Z,4.03
2024-02-08T13:50:59.306Z,4.17
2024-02-08T13:53:29.523Z,4.40
2024-02-08T13:55:56.919Z,4.43
2024-02-08T13:58:29.757Z,4.13
2024-02-08T14:00:59.338Z,4.67
2024-02-08T14:03:30.886Z,4.33
2024-02-08T14:06:00.844Z,4.40
2024-02-08T14:08:29.638Z,4.03
2024-02-08T14:10:59.619Z,4.00
2024-02-08T14:13:39.374Z,3.87
2024-02-08T14:16:17.716Z,4.33
2024-02-08T14:18:53.833Z,4.17
2024-02-08T14:21:26.387Z,4.13
2024-02-08T14:24:00.763Z,3.77
2024-02-08T14:26:48.086Z,3.53
2024-02-08T14:29:14.917Z,3.87
2024-02-08T14:31:43.130Z,3.13
2024-02-08T14:34:12.517Z,3.40
2024-02-08T14:39:28.333Z,3.90
2024-02-08T14:41:59.913Z,3.10
2024-02-08T14:44:32.992Z,3.97
2024-02-08T14:47:01.720Z,3.47
2024-02-08T14:49:31.392Z,3.77
2024-02-08T14:52:04.104Z,3.80
2024-02-08T14:54:32.192Z,3.47
2024-02-08T14:57:06.333Z,4.50
2024-02-08T14:59:51.093Z,3.40
2024-02-08T15:02:20.674Z,3.83
2024-02-08T15:04:54.736Z,3.30
2024-02-08T15:07:41.048Z,3.50
2024-02-08T15:10:11.317Z,4.33
2024-02-08T15:12:54.780Z,3.63
2024-02-08T15:15:32.436Z,3.43
2024-02-08T15:18:14.058Z,3.40
2024-02-08T15:20:47.809Z,3.67
2024-02-08T15:23:49.265Z,3.77
2024-02-08T15:26:25.782Z,4.27
2024-02-08T15:28:57.212Z,4.20
2024-02-08T15:31:39.469Z,4.80
2024-02-08T15:34:16.293Z,6.20
2024-02-08T15:37:12.961Z,5.17
2024-02-08T15:39:39.967Z,4.23
2024-02-08T15:42:19.247Z,4.30
2024-02-08T15:44:48.620Z,5.40
2024-02-08T15:47:19.875Z,6.50
2024-02-08T15:49:47.192Z,4.80
2024-02-08T15:52:17.481Z,3.93
2024-02-08T15:54:46.707Z,5.30
2024-02-08T15:57:14.982Z,4.87
2024-02-08T15:59:45.733Z,4.40
2024-02-08T16:02:19.220Z,4.43
2024-02-08T16:04:52.398Z,4.20
2024-02-08T16:07:28.739Z,4.07
2024-02-08T16:09:59.499Z,4.67
2024-02-08T16:12:29.386Z,5.00
2024-02-08T16:15:06.751Z,5.10
2024-02-08T16:17:36.803Z,6.33
2024-02-08T16:20:14.914Z,5.10
2024-02-08T16:22:58.347Z,4.43
2024-02-08T16:25:44.469Z,4.00
2024-02-08T16:28:20.138Z,3.70
2024-02-08T16:31:00.608Z,4.60
2024-02-08T16:33:42.424Z,4.13
2024-02-08T16:36:29.647Z,3.83
2024-02-08T16:38:58.863Z,4.17
2024-02-08T16:41:50.029Z,4.17
2024-02-08T16:44:31.000Z,4.50
2024-02-08T16:47:01.108Z,3.83
2024-02-08T16:49:31.820Z,3.57
2024-02-08T16:52:05.876Z,4.40
2024-02-08T16:54:36.042Z,4.40
2024-02-08T16:57:05.070Z,4.10
2024-02-08T16:59:45.964Z,4.30
2024-02-08T17:02:28.103Z,4.87
2024-02-08T17:05:18.009Z,4.30
2024-02-08T17:07:45.340Z,4.07
2024-02-08T17:10:23.903Z,4.93
2024-02-08T17:12:58.388Z,4.47
2024-02-08T17:15:28.687Z,4.87
2024-02-08T17:18:17.662Z,5.27
2024-02-08T17:20:54.635Z,4.70
2024-02-08T17:23:29.152Z,4.70
2024-02-08T17:26:16.531Z,4.60
2024-02-08T17:29:03.001Z,4.27
2024-02-08T17:31:30.325Z,4.77
2024-02-08T17:33:58.374Z,5.00
2024-02-08T17:36:32.103Z,5.77
2024-02-08T17:38:59.098Z,4.63
2024-02-08T17:41:28.482Z,5.57
2024-02-08T17:44:04.925Z,5.13
2024-02-08T17:46:35.509Z,5.30
2024-02-08T17:49:05.714Z,4.87
2024-02-08T17:51:33.253Z,4.77
2024-02-08T17:54:08.194Z,4.90
2024-02-08T17:56:46.665Z,5.50
2024-02-08T17:59:19.633Z,7.40
2024-02-08T18:01:57.460Z,6.90
2024-02-08T18:04:25.969Z,6.10
2024-02-08T18:07:00.012Z,5.90
2024-02-08T18:09:38.401Z,5.57
2024-02-08T18:12:13.234Z,5.90
2024-02-08T18:14:41.693Z,5.97
2024-02-08T18:17:15.985Z,5.83
2024-02-08T18:19:47.205Z,6.03
2024-02-08T18:22:15.934Z,5.97
2024-02-08T18:24:49.510Z,6.07
2024-02-08T18:27:23.338Z,5.90
2024-02-08T18:29:52.223Z,6.03
2024-02-08T18:32:20.272Z,6.80
2024-02-08T18:34:51.163Z,6.17
2024-02-08T18:37:27.752Z,6.73
2024-02-08T18:40:01.985Z,6.70
2024-02-08T18:42:30.186Z,6.83
2024-02-08T18:44:58.016Z,7.93
2024-02-08T18:47:29.843Z,7.43
2024-02-08T18:49:58.796Z,9.93
2024-02-08T18:52:25.948Z,8.20
2024-02-08T18:54:56.545Z,8.50
2024-02-08T18:57:23.674Z,8.40
2024-02-08T18:59:55.706Z,11.17
2024-02-08T19:02:25.495Z,8.43
2024-02-08T19:04:53.906Z,8.03
2024-02-08T19:07:21.839Z,7.63
2024-02-08T19:09:53.284Z,7.70
2024-02-08T19:12:20.583Z,7.80
2024-02-08T19:14:50.730Z,7.63
2024-02-08T19:17:22.735Z,7.70
2024-02-08T19:19:50.087Z,9.57
2024-02-08T19:22:17.337Z,8.60
2024-02-08T19:24:47.081Z,8.97
2024-02-08T19:27:15.145Z,7.70
2024-02-08T19:29:44.411Z,9.60
2024-02-08T19:32:20.005Z,8.63
2024-02-08T19:34:53.382Z,8.60
2024-02-08T19:37:23.765Z,9.20
2024-02-08T19:39:55.920Z,9.30
2024-02-08T19:42:23.795Z,9.10
2024-02-08T19:44:57.137Z,8.90
2024-02-08T19:47:27.939Z,8.57
2024-02-08T19:50:02.962Z,10.00
2024-02-08T19:52:41.013Z,10.93
2024-02-08T19:55:22.396Z,12.57
2024-02-08T19:57:54.130Z,10.53
2024-02-08T20:00:22.701Z,11.43
2024-02-08T20:02:53.587Z,11.63
2024-02-08T20:05:24.194Z,11.40
2024-02-08T20:07:52.387Z,11.03
2024-02-08T20:10:20.988Z,10.23
2024-02-08T20:12:50.100Z,11.60
2024-02-08T20:15:22.584Z,11.27
2024-02-08T20:17:53.697Z,10.03
2024-02-08T20:20:22.862Z,12.07
2024-02-08T20:22:53.573Z,12.97
2024-02-08T20:25:34.704Z,12.43
2024-02-08T20:28:07.335Z,10.03
2024-02-08T20:30:37.084Z,11.33
2024-02-08T20:33:06.191Z,14.40
2024-02-08T20:35:33.426Z,12.67
2024-02-08T20:38:00.916Z,12.63
2024-02-08T20:40:29.479Z,13.80
2024-02-08T20:43:00.168Z,11.83
2024-02-08T20:45:28.387Z,14.03
2024-02-08T20:47:55.613Z,14.00
2024-02-08T20:50:22.994Z,12.87
2024-02-08T20:52:50.929Z,16.97
2024-02-08T20:55:25.254Z,15.93
2024-02-08T20:57:54.177Z,13.77
2024-02-08T21:00:23.730Z,12.83
2024-02-08T21:02:54.257Z,15.03
2024-02-08T21:05:22.410Z,12.60
2024-02-08T21:07:50.793Z,18.60
2024-02-08T21:10:26.928Z,16.63
2024-02-08T21:12:54.001Z,14.57
2024-02-08T21:15:24.216Z,14.50
2024-02-08T21:17:51.425Z,14.77
2024-02-08T21:20:18.736Z,15.63
2024-02-08T21:22:48.574Z,21.23
2024-02-08T21:25:20.114Z,29.20
2024-02-08T21:27:53.461Z,19.43
2024-02-08T21:30:21.917Z,14.23
2024-02-08T21:32:49.874Z,17.77
2024-02-08T21:35:18.121Z,17.87
2024-02-08T21:37:46.755Z,21.07
2024-02-08T21:40:14.424Z,16.90
2024-02-08T21:42:41.325Z,16.73
2024-02-08T21:45:13.431Z,17.90
2024-02-08T21:47:40.659Z,18.30
2024-02-08T21:50:08.860Z,18.30
2024-02-08T21:52:39.473Z,15.00
2024-02-08T21:55:08.113Z,15.33
2024-02-08T21:57:35.618Z,13.83
2024-02-08T22:00:02.772Z,16.33
2024-02-08T22:02:31.091Z,16.03
2024-02-08T22:04:58.050Z,17.30
2024-02-08T22:07:25.204Z,18.33
2024-02-08T22:09:54.015Z,15.70
2024-02-08T22:12:23.122Z,16.63
2024-02-08T22:14:51.377Z,17.60
2024-02-08T22:17:19.986Z,17.17
2024-02-08T22:19:47.890Z,17.13
2024-02-08T22:22:16.245Z,18.63
2024-02-08T22:24:43.148Z,21.93
2024-02-08T22:27:11.128Z,19.20
2024-02-08T22:29:41.820Z,19.20
2024-02-08T22:32:08.853Z,20.40
2024-02-08T22:34:36.082Z,20.40
2024-02-08T22:37:06.210Z,18.93
2024-02-08T22:39:33.141Z,21.23
2024-02-08T22:42:00.814Z,18.43
2024-02-08T22:44:30.861Z,19.03
2024-02-08T22:46:57.738Z,15.47
2024-02-08T22:49:26.496Z,16.47
2024-02-08T22:51:54.180Z,17.30
2024-02-08T22:54:24.636Z,15.90
2024-02-08T22:56:51.977Z,18.03
2024-02-08T22:59:22.749Z,18.00
2024-02-08T23:01:56.209Z,17.73
2024-02-08T23:04:24.643Z,15.30
2024-02-08T23:06:52.661Z,18.43
2024-02-08T23:09:20.400Z,16.80
2024-02-08T23:11:50.868Z,17.37
2024-02-08T23:14:20.192Z,15.70
2024-02-08T23:16:52.391Z,17.03
2024-02-08T23:19:20.119Z,18.00
2024-02-08T23:21:52.835Z,18.93
2024-02-08T23:24:26.191Z,20.63
2024-02-08T23:26:53.306Z,17.40
2024-02-08T23:29:22.985Z,17.13
2024-02-08T23:31:52.200Z,18.93
2024-02-08T23:34:20.461Z,19.83
2024-02-08T23:36:52.053Z,19.03
2024-02-08T23:39:19.437Z,18.70
2024-02-08T23:41:48.894Z,18.43
2024-02-08T23:44:16.510Z,19.87
2024-02-08T23:46:43.442Z,19.20
2024-02-08T23:49:10.678Z,19.33
2024-02-08T23:51:37.870Z,19.93
2024-02-08T23:54:04.780Z,19.87
2024-02-08T23:56:33.681Z,19.53
2024-02-08T23:59:02.342Z,22.17
